createdAt,value
2018-03-01T00:00:01.100Z,41.50
2018-03-01T00:02:28.544Z,41.78
2018-03-01T00:04:56.002Z,41.85
2018-03-01T00:07:23.436Z,43.13
2018-03-01T00:09:50.876Z,42.83
2018-03-01T00:12:18.328Z,42.47
2018-03-01T00:14:45.804Z,42.67
2018-03-01T00:17:13.251Z,41.80
2018-03-01T00:19:40.698Z,44.03
2018-03-01T00:22:08.135Z,43.30
2018-03-01T00:24:35.578Z,40.67
2018-03-01T00:27:03.035Z,42.88
2018-03-01T00:29:30.466Z,45.33
2018-03-01T00:31:57.900Z,44.28
2018-03-01T00:34:25.355Z,43.58
2018-03-01T00:36:52.783Z,43.50
2018-03-01T00:39:20.218Z,44.47
2018-03-01T00:41:47.682Z,44.20
2018-03-01T00:44:15.115Z,45.80
2018-03-01T00:46:42.700Z,44.17
2018-03-01T00:49:10.145Z,43.33
2018-03-01T00:51:37.588Z,43.60
2018-03-01T00:54:05.063Z,43.17
2018-03-01T00:56:32.492Z,44.40
2018-03-01T00:58:59.923Z,44.33
2018-03-01T01:01:27.488Z,41.85
2018-03-01T01:03:54.915Z,45.15
2018-03-01T01:06:22.378Z,42.13
2018-03-01T01:08:49.806Z,42.42
2018-03-01T01:11:17.239Z,43.72
2018-03-01T01:13:44.683Z,42.75
2018-03-01T01:16:12.120Z,43.35
2018-03-01T01:18:39.554Z,43.67
2018-03-01T01:21:07.011Z,44.38
2018-03-01T01:23:34.438Z,43.13
2018-03-01T01:26:01.871Z,46.00
2018-03-01T01:28:29.327Z,44.03
2018-03-01T01:30:56.760Z,44.50
2018-03-01T01:33:24.192Z,42.75
2018-03-01T01:35:51.634Z,46.53
2018-03-01T01:38:19.110Z,44.45
2018-03-01T01:40:46.539Z,44.10
2018-03-01T01:43:13.972Z,44.10
2018-03-01T01:45:41.420Z,44.30
2018-03-01T01:48:08.863Z,47.17
2018-03-01T01:50:48.044Z,45.67
2018-03-01T01:53:15.492Z,45.42
2018-03-01T01:55:42.919Z,44.60
2018-03-01T01:58:10.364Z,46.88
2018-03-01T02:00:37.815Z,36.13
2018-03-01T02:03:05.258Z,43.35
2018-03-01T02:05:32.700Z,43.92
2018-03-01T02:08:00.140Z,44.35
2018-03-01T02:10:27.584Z,42.20
2018-03-01T02:12:55.016Z,43.53
2018-03-01T02:15:22.463Z,45.12
2018-03-01T02:17:49.895Z,43.38
2018-03-01T02:20:17.336Z,43.83
2018-03-01T02:22:44.786Z,41.70
2018-03-01T02:25:12.226Z,46.17
2018-03-01T02:27:39.659Z,42.08
2018-03-01T02:30:07.120Z,42.58
2018-03-01T02:32:34.552Z,42.97
2018-03-01T02:35:01.992Z,45.95
2018-03-01T02:37:29.439Z,43.45
2018-03-01T02:39:56.868Z,45.42
2018-03-01T02:42:24.307Z,44.38
2018-03-01T02:44:51.751Z,44.88
2018-03-01T02:47:19.187Z,42.62
2018-03-01T02:49:46.628Z,44.53
2018-03-01T02:52:14.084Z,42.40
2018-03-01T02:54:41.518Z,42.13
2018-03-01T02:57:08.960Z,42.53
2018-03-01T02:59:36.409Z,43.47
2018-03-01T03:02:03.840Z,41.47
2018-03-01T03:04:31.288Z,45.92
2018-03-01T03:06:58.732Z,44.15
2018-03-01T03:09:26.158Z,40.72
2018-03-01T03:11:53.606Z,43.03
2018-03-01T03:14:21.035Z,41.33
2018-03-01T03:16:48.466Z,41.13
2018-03-01T03:19:15.923Z,40.90
2018-03-01T03:21:43.355Z,42.85
2018-03-01T03:24:10.800Z,41.83
2018-03-01T03:26:38.242Z,42.42
2018-03-01T03:29:05.678Z,41.97
2018-03-01T03:31:33.121Z,43.75
2018-03-01T03:34:00.551Z,44.67
2018-03-01T03:36:27.986Z,45.20
2018-03-01T03:38:55.469Z,42.42
2018-03-01T03:41:22.916Z,45.30
2018-03-01T03:43:50.352Z,42.00
2018-03-01T03:46:17.802Z,45.47
2018-03-01T03:48:45.236Z,43.35
2018-03-01T03:51:12.676Z,42.05
2018-03-01T03:53:40.123Z,42.17
2018-03-01T03:56:07.568Z,42.90
2018-03-01T03:58:35.032Z,40.85
2018-03-01T04:01:02.468Z,42.97
2018-03-01T04:03:29.907Z,42.80
2018-03-01T04:05:57.356Z,42.75
2018-03-01T04:08:24.787Z,44.30
2018-03-01T04:10:52.219Z,41.53
2018-03-01T04:13:19.677Z,42.33
2018-03-01T04:15:47.109Z,44.28
2018-03-01T04:18:14.552Z,42.60
2018-03-01T04:20:41.999Z,45.38
2018-03-01T04:23:09.444Z,41.90
2018-03-01T04:25:36.875Z,40.05
2018-03-01T04:28:04.318Z,42.50
2018-03-01T04:30:31.756Z,47.13
2018-03-01T04:32:59.192Z,45.58
2018-03-01T04:35:26.637Z,43.90
2018-03-01T04:37:54.067Z,41.88
2018-03-01T04:40:21.523Z,43.20
2018-03-01T04:42:48.959Z,42.47
2018-03-01T04:45:17.311Z,45.15
2018-03-01T04:47:44.751Z,43.90
2018-03-01T04:50:12.197Z,44.92
2018-03-01T04:52:39.637Z,41.80
2018-03-01T04:55:07.079Z,44.30
2018-03-01T04:57:34.515Z,44.05
2018-03-01T05:00:01.944Z,43.60
2018-03-01T05:02:29.391Z,42.30
2018-03-01T05:04:56.828Z,42.38
2018-03-01T05:07:24.277Z,43.42
2018-03-01T05:09:51.731Z,42.17
2018-03-01T05:12:19.158Z,44.83
2018-03-01T05:14:46.618Z,43.35
2018-03-01T05:17:14.046Z,43.50
2018-03-01T05:19:41.479Z,42.83
2018-03-01T05:22:08.935Z,42.47
2018-03-01T05:24:36.368Z,42.10
2018-03-01T05:27:03.803Z,41.80
2018-03-01T05:29:31.261Z,41.75
2018-03-01T05:31:58.704Z,43.30
2018-03-01T05:34:26.131Z,44.53
2018-03-01T05:36:53.571Z,44.42
2018-03-01T05:39:21.003Z,42.75
2018-03-01T05:41:48.493Z,43.70
2018-03-01T05:44:15.928Z,42.95
2018-03-01T05:46:43.354Z,41.95
2018-03-01T05:49:10.807Z,44.42
2018-03-01T05:51:38.232Z,42.40
2018-03-01T05:54:05.672Z,43.00
2018-03-01T05:56:33.127Z,43.28
2018-03-01T05:59:00.559Z,43.03
2018-03-01T06:01:28.003Z,42.35
2018-03-01T06:03:55.452Z,42.20
2018-03-01T06:06:22.884Z,42.97
2018-03-01T06:08:50.327Z,46.00
2018-03-01T06:11:17.760Z,42.80
2018-03-01T06:13:45.192Z,44.47
2018-03-01T06:16:12.639Z,45.22
2018-03-01T06:18:40.072Z,44.38
2018-03-01T06:21:07.519Z,43.20
2018-03-01T06:23:34.952Z,44.97
2018-03-01T06:26:02.383Z,44.67
2018-03-01T06:28:29.827Z,42.28
2018-03-01T06:30:57.261Z,42.30
2018-03-01T06:33:24.716Z,45.85
2018-03-01T06:35:52.352Z,41.37
2018-03-01T06:38:19.804Z,44.05
2018-03-01T06:40:47.247Z,43.60
2018-03-01T06:43:14.684Z,39.97
2018-03-01T06:45:42.120Z,43.55
2018-03-01T06:48:09.568Z,42.53
2018-03-01T06:50:37.008Z,43.10
2018-03-01T06:53:04.443Z,43.83
2018-03-01T06:55:31.891Z,41.35
2018-03-01T06:57:59.323Z,44.08
2018-03-01T07:00:26.771Z,44.00
2018-03-01T07:02:54.206Z,43.60
2018-03-01T07:05:21.635Z,43.25
2018-03-01T07:07:49.083Z,43.08
2018-03-01T07:10:16.519Z,42.95
2018-03-01T07:12:43.955Z,42.70
2018-03-01T07:15:11.408Z,43.75
2018-03-01T07:17:38.848Z,42.65
2018-03-01T07:20:06.302Z,43.85
2018-03-01T07:22:33.745Z,42.17
2018-03-01T07:25:01.167Z,40.50
2018-03-01T07:27:28.623Z,44.15
2018-03-01T07:29:56.078Z,41.05
2018-03-01T07:32:23.520Z,42.17
2018-03-01T07:34:50.960Z,42.60
2018-03-01T07:37:18.386Z,41.78
2018-03-01T07:39:45.824Z,40.78
2018-03-01T07:42:13.275Z,42.97
2018-03-01T07:44:40.720Z,44.92
2018-03-01T07:47:08.153Z,43.25
2018-03-01T07:49:35.587Z,42.05
2018-03-01T07:52:03.020Z,42.75
2018-03-01T07:54:30.448Z,41.28
2018-03-01T07:56:57.892Z,41.78
2018-03-01T07:59:25.337Z,41.37
2018-03-01T08:01:52.783Z,43.33
2018-03-01T08:04:20.280Z,42.85
2018-03-01T08:06:47.660Z,42.45
2018-03-01T08:09:15.112Z,44.10
2018-03-01T08:11:42.544Z,43.13
2018-03-01T08:14:09.983Z,42.42
2018-03-01T08:16:37.428Z,44.78
2018-03-01T08:19:04.860Z,42.38
2018-03-01T08:21:32.307Z,42.05
2018-03-01T08:23:59.745Z,42.85
2018-03-01T08:26:27.170Z,41.17
2018-03-01T08:28:54.620Z,42.92
2018-03-01T08:31:22.080Z,40.05
2018-03-01T08:33:49.511Z,38.63
2018-03-01T08:36:16.965Z,40.00
2018-03-01T08:38:44.402Z,39.63
2018-03-01T08:41:11.856Z,40.35
2018-03-01T08:43:39.296Z,40.05
2018-03-01T08:46:06.755Z,40.03
2018-03-01T08:48:34.196Z,43.08
2018-03-01T08:51:01.618Z,41.05
2018-03-01T08:53:29.062Z,43.08
2018-03-01T08:55:56.515Z,42.00
2018-03-01T08:58:23.955Z,41.97
2018-03-01T09:00:51.399Z,37.67
2018-03-01T09:03:18.843Z,39.95
2018-03-01T09:05:46.277Z,41.05
2018-03-01T09:08:13.711Z,40.63
2018-03-01T09:10:42.184Z,41.33
2018-03-01T09:13:09.632Z,39.78
2018-03-01T09:15:37.071Z,36.20
2018-03-01T09:18:04.515Z,40.38
2018-03-01T09:20:31.947Z,39.47
2018-03-01T09:22:59.583Z,40.33
2018-03-01T09:25:27.027Z,40.70
2018-03-01T09:27:54.464Z,39.38
2018-03-01T09:30:21.900Z,41.10
2018-03-01T09:32:49.349Z,39.00
2018-03-01T09:35:16.799Z,40.65
2018-03-01T09:37:44.323Z,38.70
2018-03-01T09:40:11.760Z,41.28
2018-03-01T09:42:39.212Z,40.67
2018-03-01T09:45:06.635Z,39.13
2018-03-01T09:47:34.180Z,40.70
2018-03-01T09:50:01.624Z,38.17
2018-03-01T09:52:29.085Z,39.90
2018-03-01T09:54:56.528Z,42.62
2018-03-01T09:57:23.967Z,39.20
2018-03-01T09:59:51.414Z,39.65
2018-03-01T10:02:18.856Z,40.05
2018-03-01T10:04:46.280Z,39.03
2018-03-01T10:07:13.758Z,38.38
2018-03-01T10:09:41.168Z,39.42
2018-03-01T10:12:08.596Z,39.80
2018-03-01T10:14:36.043Z,40.42
2018-03-01T10:17:03.475Z,41.10
2018-03-01T10:19:30.913Z,41.03
2018-03-01T10:21:58.356Z,40.28
2018-03-01T10:24:25.787Z,37.08
2018-03-01T10:26:53.286Z,39.42
2018-03-01T10:29:20.731Z,42.42
2018-03-01T10:31:48.151Z,41.05
2018-03-01T10:34:17.593Z,42.47
2018-03-01T10:36:45.035Z,39.40
2018-03-01T10:39:12.476Z,41.67
2018-03-01T10:41:39.908Z,40.40
2018-03-01T10:44:07.397Z,41.50
2018-03-01T10:46:34.836Z,39.10
2018-03-01T10:49:02.271Z,41.72
2018-03-01T10:51:29.727Z,38.55
2018-03-01T10:53:57.180Z,39.92
2018-03-01T10:56:24.607Z,42.88
2018-03-01T10:58:52.060Z,39.65
2018-03-01T11:01:19.517Z,40.15
2018-03-01T11:03:51.933Z,41.67
2018-03-01T11:06:19.376Z,41.83
2018-03-01T11:08:46.833Z,37.72
2018-03-01T11:11:14.288Z,39.33
2018-03-01T11:13:41.839Z,39.50
2018-03-01T11:16:09.292Z,39.05
2018-03-01T11:18:36.760Z,40.00
2018-03-01T11:21:04.208Z,37.28
2018-03-01T11:23:31.647Z,37.10
2018-03-01T11:25:59.087Z,37.90
2018-03-01T11:28:26.522Z,36.80
2018-03-01T11:30:53.977Z,38.88
2018-03-01T11:33:21.512Z,39.75
2018-03-01T11:35:48.934Z,36.75
2018-03-01T11:38:16.388Z,36.22
2018-03-01T11:40:43.922Z,39.00
2018-03-01T11:43:11.370Z,36.58
2018-03-01T11:45:38.826Z,40.30
2018-03-01T11:48:06.288Z,37.90
2018-03-01T11:50:33.740Z,40.55
2018-03-01T11:53:01.177Z,38.05
2018-03-01T11:55:28.616Z,39.67
2018-03-01T11:57:56.069Z,40.78
2018-03-01T12:00:23.500Z,37.38
2018-03-01T12:02:50.945Z,39.97
2018-03-01T12:05:18.392Z,37.58
2018-03-01T12:07:45.830Z,40.65
2018-03-01T12:10:13.287Z,40.97
2018-03-01T12:12:40.721Z,40.15
2018-03-01T12:15:08.143Z,40.58
2018-03-01T12:17:35.600Z,39.17
2018-03-01T12:20:03.035Z,41.75
2018-03-01T12:22:30.490Z,42.08
2018-03-01T12:24:57.927Z,40.90
2018-03-01T12:27:25.364Z,41.22
2018-03-01T12:29:52.802Z,36.92
2018-03-01T12:32:20.239Z,42.30
2018-03-01T12:34:47.680Z,41.60
2018-03-01T12:37:15.144Z,41.00
2018-03-01T12:39:42.584Z,39.80
2018-03-01T12:42:10.010Z,38.63
2018-03-01T12:44:37.452Z,40.90
2018-03-01T12:47:04.880Z,39.33
2018-03-01T12:49:32.327Z,42.28
2018-03-01T12:51:59.760Z,39.10
2018-03-01T12:54:27.209Z,37.65
2018-03-01T12:56:54.656Z,41.80
2018-03-01T12:59:22.092Z,41.05
2018-03-01T13:01:49.535Z,38.67
2018-03-01T13:17:39.068Z,39.08
2018-03-01T13:20:06.527Z,38.70
2018-03-01T13:22:33.957Z,38.95
2018-03-01T13:25:01.404Z,40.58
2018-03-01T13:27:28.850Z,38.53
2018-03-01T13:29:56.288Z,40.65
2018-03-01T13:32:23.724Z,41.63
2018-03-01T13:35:06.835Z,40.40
2018-03-01T13:37:34.272Z,39.58
2018-03-01T13:40:01.700Z,41.30
2018-03-01T13:42:29.145Z,42.95
2018-03-01T13:44:56.580Z,40.20
2018-03-01T14:00:45.268Z,41.60
2018-03-01T14:03:12.699Z,41.70
2018-03-01T14:05:40.161Z,42.97
2018-03-01T14:08:07.594Z,41.53
2018-03-01T14:10:35.028Z,42.40
2018-03-01T14:13:18.144Z,44.88
2018-03-01T14:15:45.581Z,41.63
2018-03-01T14:18:21.608Z,42.55
2018-03-01T14:20:54.523Z,41.53
2018-03-01T14:23:27.628Z,41.17
2018-03-01T14:25:57.467Z,42.40
2018-03-01T14:28:41.608Z,43.63
2018-03-01T14:31:09.048Z,44.42
2018-03-01T14:33:36.489Z,41.53
2018-03-01T14:36:03.940Z,42.65
2018-03-01T14:38:31.389Z,40.17
2018-03-01T14:40:58.819Z,43.00
2018-03-01T14:43:26.256Z,41.25
2018-03-01T14:45:53.704Z,42.20
2018-03-01T14:48:21.157Z,41.10
2018-03-01T14:50:48.587Z,42.15
2018-03-01T14:53:16.020Z,39.63
2018-03-01T14:55:43.473Z,42.03
2018-03-01T14:58:10.899Z,42.00
2018-03-01T15:00:38.328Z,42.33
2018-03-01T15:03:05.776Z,39.83
2018-03-01T15:05:33.212Z,41.03
2018-03-01T15:08:00.644Z,40.05
2018-03-01T15:10:28.084Z,40.10
2018-03-01T15:12:55.514Z,41.95
2018-03-01T15:15:22.953Z,40.63
2018-03-01T15:17:50.391Z,40.53
2018-03-01T15:20:17.839Z,42.28
2018-03-01T15:22:45.292Z,40.42
2018-03-01T15:25:12.724Z,38.60
2018-03-01T15:27:40.153Z,40.03
2018-03-01T15:30:07.591Z,43.05
2018-03-01T15:32:35.015Z,40.80
2018-03-01T15:35:02.464Z,38.67
2018-03-01T15:37:29.901Z,40.35
2018-03-01T15:39:57.337Z,38.85
2018-03-01T15:42:24.784Z,40.65
2018-03-01T15:44:52.217Z,43.95
2018-03-01T15:47:19.639Z,41.42
2018-03-01T15:49:47.084Z,44.85
2018-03-01T15:52:14.534Z,40.03
2018-03-01T15:54:41.967Z,37.88
2018-03-01T15:57:09.411Z,41.22
2018-03-01T15:59:36.848Z,40.10
2018-03-01T16:02:04.323Z,40.78
2018-03-01T16:04:31.831Z,40.35
2018-03-01T16:06:59.270Z,40.60
2018-03-01T16:09:26.717Z,41.88
2018-03-01T16:11:54.440Z,41.33
2018-03-01T16:14:21.896Z,39.58
2018-03-01T16:16:49.352Z,37.72
2018-03-01T16:19:16.811Z,42.90
2018-03-01T16:21:44.273Z,41.70
2018-03-01T16:24:11.715Z,41.72
2018-03-01T16:26:39.147Z,39.63
2018-03-01T16:29:06.600Z,40.92
2018-03-01T16:31:34.036Z,38.28
2018-03-01T16:34:01.492Z,38.17
2018-03-01T16:36:28.922Z,39.72
2018-03-01T16:38:56.354Z,38.88
2018-03-01T16:41:23.808Z,42.05
2018-03-01T16:43:51.263Z,40.38
2018-03-01T16:46:18.700Z,40.17
2018-03-01T16:48:46.360Z,42.70
2018-03-01T16:51:13.803Z,41.83
2018-03-01T16:53:41.241Z,41.28
2018-03-01T16:56:08.696Z,42.15
2018-03-01T16:58:36.139Z,40.58
2018-03-01T17:01:03.589Z,37.92
2018-03-01T17:03:31.053Z,40.97
2018-03-01T17:05:59.208Z,39.55
2018-03-01T17:08:26.639Z,40.15
2018-03-01T17:10:54.203Z,40.72
2018-03-01T17:13:21.991Z,41.85
2018-03-01T17:15:49.430Z,39.90
2018-03-01T17:18:16.864Z,39.47
2018-03-01T17:20:44.308Z,40.12
2018-03-01T17:23:11.740Z,39.58
2018-03-01T17:25:39.197Z,39.92
2018-03-01T17:28:06.776Z,40.28
2018-03-01T17:30:34.220Z,39.97
2018-03-01T17:33:01.664Z,39.03
2018-03-01T17:35:29.099Z,41.78
2018-03-01T17:37:56.555Z,41.60
2018-03-01T17:40:23.996Z,40.88
2018-03-01T17:42:51.443Z,41.10
2018-03-01T17:45:18.876Z,40.85
2018-03-01T17:47:46.323Z,40.25
2018-03-01T17:50:13.786Z,41.97
2018-03-01T17:52:41.229Z,42.75
2018-03-01T17:55:08.660Z,42.22
2018-03-01T17:57:36.116Z,40.12
2018-03-01T18:00:03.556Z,40.85
2018-03-01T18:02:30.991Z,39.45
2018-03-01T18:04:58.433Z,40.63
2018-03-01T18:07:25.953Z,43.10
2018-03-01T18:09:53.387Z,40.45
2018-03-01T18:12:20.922Z,41.03
2018-03-01T18:14:48.367Z,40.65
2018-03-01T18:17:15.808Z,41.30
2018-03-01T18:19:43.244Z,43.75
2018-03-01T18:22:10.692Z,43.33
2018-03-01T18:24:38.132Z,41.05
2018-03-01T18:27:05.572Z,39.28
2018-03-01T18:29:33.019Z,40.78
2018-03-01T18:32:00.454Z,40.33
2018-03-01T18:34:27.903Z,41.45
2018-03-01T18:36:55.331Z,42.22
2018-03-01T18:39:22.763Z,40.85
2018-03-01T18:41:50.231Z,41.00
2018-03-01T18:44:17.668Z,43.08
2018-03-01T18:46:45.108Z,40.90
2018-03-01T18:49:12.564Z,43.03
2018-03-01T18:51:39.997Z,41.30
2018-03-01T18:54:07.427Z,41.15
2018-03-01T18:56:34.887Z,40.10
2018-03-01T18:59:02.344Z,41.28
2018-03-01T19:01:29.783Z,42.72
2018-03-01T19:03:57.223Z,40.55
2018-03-01T19:06:24.685Z,39.63
2018-03-01T19:08:52.153Z,40.65
2018-03-01T19:11:19.595Z,39.70
2018-03-01T19:13:47.038Z,43.13
2018-03-01T19:16:14.479Z,41.63
2018-03-01T19:18:41.927Z,42.67
2018-03-01T19:21:09.369Z,39.90
2018-03-01T19:23:36.853Z,39.78
2018-03-01T19:26:04.295Z,43.30
2018-03-01T19:28:31.725Z,42.53
2018-03-01T19:30:59.182Z,39.47
2018-03-01T19:33:26.619Z,40.63
2018-03-01T19:35:54.057Z,39.88
2018-03-01T19:38:21.495Z,41.42
2018-03-01T19:40:48.923Z,41.17
2018-03-01T19:43:16.376Z,41.00
2018-03-01T19:45:43.806Z,43.22
2018-03-01T19:48:11.248Z,40.88
2018-03-01T19:50:38.708Z,40.90
2018-03-01T19:53:06.157Z,40.92
2018-03-01T19:55:33.593Z,41.88
2018-03-01T19:58:01.049Z,44.17
2018-03-01T20:00:28.494Z,42.67
2018-03-01T20:02:55.933Z,42.88
2018-03-01T20:05:23.443Z,41.25
2018-03-01T20:07:50.961Z,43.03
2018-03-01T20:10:18.405Z,43.63
2018-03-01T20:12:45.858Z,41.70
2018-03-01T20:15:13.287Z,41.15
2018-03-01T20:17:40.731Z,44.78
2018-03-01T20:20:08.171Z,45.42
2018-03-01T20:22:35.611Z,45.63
2018-03-01T20:25:03.073Z,43.45
2018-03-01T20:27:30.508Z,42.17
2018-03-01T20:29:58.052Z,42.33
2018-03-01T20:32:25.501Z,44.58
2018-03-01T20:34:52.984Z,47.78
2018-03-01T20:37:20.424Z,44.38
2018-03-01T20:39:47.883Z,42.33
2018-03-01T20:42:15.332Z,44.85
2018-03-01T20:44:42.763Z,45.38
2018-03-01T20:47:10.217Z,42.55
2018-03-01T20:49:37.663Z,45.53
2018-03-01T20:52:05.118Z,43.13
2018-03-01T20:54:32.592Z,47.85
2018-03-01T20:57:00.036Z,47.03
2018-03-01T20:59:27.476Z,47.50
2018-03-01T21:01:54.992Z,45.38
2018-03-01T21:04:22.447Z,46.05
2018-03-01T21:06:49.916Z,47.33
2018-03-01T21:09:17.348Z,47.40
2018-03-01T21:11:44.796Z,45.72
2018-03-01T21:14:12.243Z,49.80
2018-03-01T21:16:39.683Z,46.65
2018-03-01T21:19:07.140Z,44.67
2018-03-01T21:21:34.575Z,44.00
2018-03-01T21:24:02.007Z,48.42
2018-03-01T21:26:29.534Z,47.15
2018-03-01T21:28:56.971Z,49.58
2018-03-01T21:31:24.403Z,47.22
2018-03-01T21:33:51.855Z,47.92
2018-03-01T21:36:19.301Z,47.25
2018-03-01T21:38:46.736Z,47.65
2018-03-01T21:41:14.146Z,45.88
2018-03-01T21:43:41.616Z,46.58
2018-03-01T21:46:09.086Z,52.42
2018-03-01T21:48:36.532Z,45.97
2018-03-01T21:51:03.972Z,48.70
2018-03-01T21:53:31.439Z,49.28
2018-03-01T21:55:58.880Z,51.08
2018-03-01T21:58:26.337Z,51.75
2018-03-01T22:00:53.768Z,51.88
2018-03-01T22:03:21.212Z,52.38
2018-03-01T22:05:48.658Z,50.58
2018-03-01T22:08:16.096Z,53.15
2018-03-01T22:10:43.535Z,49.33
2018-03-01T22:13:10.975Z,50.88
2018-03-01T22:15:38.428Z,50.20
2018-03-01T22:18:05.879Z,49.72
2018-03-01T22:20:33.328Z,51.33
2018-03-01T22:23:00.801Z,51.22
2018-03-01T22:25:28.225Z,50.95
2018-03-01T22:27:55.662Z,51.33
2018-03-01T22:30:23.116Z,51.25
2018-03-01T22:32:50.544Z,52.17
2018-03-01T22:35:17.972Z,54.80
2018-03-01T22:37:45.424Z,53.78
2018-03-01T22:40:12.867Z,51.85
2018-03-01T22:42:40.303Z,51.22
2018-03-01T22:45:07.739Z,52.53
2018-03-01T22:47:35.176Z,53.45
2018-03-01T22:50:02.634Z,51.42
2018-03-01T22:52:30.065Z,54.90
2018-03-01T22:54:57.495Z,52.75
2018-03-01T22:57:24.948Z,53.00
2018-03-01T22:59:52.383Z,58.47
2018-03-01T23:02:19.831Z,57.67
2018-03-01T23:04:47.296Z,54.13
2018-03-01T23:07:14.735Z,56.65
2018-03-01T23:09:42.358Z,52.67
2018-03-01T23:12:09.804Z,57.62
2018-03-01T23:14:37.235Z,56.92
2018-03-01T23:17:04.683Z,54.00
2018-03-01T23:19:32.135Z,55.58
2018-03-01T23:21:59.583Z,54.10
2018-03-01T23:24:27.023Z,57.25
2018-03-01T23:26:54.466Z,59.83
2018-03-01T23:29:21.925Z,57.28
2018-03-01T23:31:49.364Z,56.42
2018-03-01T23:34:16.811Z,56.30
2018-03-01T23:36:44.260Z,56.78
2018-03-01T23:39:11.699Z,63.83
2018-03-01T23:41:39.131Z,56.67
2018-03-01T23:44:06.592Z,54.50
2018-03-01T23:46:34.027Z,55.15
2018-03-01T23:49:01.511Z,55.95
2018-03-01T23:51:28.947Z,58.25
2018-03-01T23:53:56.385Z,57.83
2018-03-01T23:56:23.859Z,54.83
2018-03-01T23:58:51.282Z,58.22
